createdAt,value
2018-07-30T00:32:30.059Z,50.33
2018-07-30T00:35:33.128Z,50.51
2018-07-30T00:38:36.244Z,50.37
2018-07-30T00:41:39.430Z,51.19
2018-07-30T00:44:42.641Z,50.96
2018-07-30T00:47:46.164Z,50.26
2018-07-30T00:50:50.470Z,50.27
2018-07-30T00:53:54.015Z,50.55
2018-07-30T00:56:57.072Z,50.87
2018-07-30T01:00:00.326Z,50.24
2018-07-30T01:03:03.456Z,51.00
2018-07-30T01:06:06.511Z,51.30
2018-07-30T01:09:10.178Z,51.54
2018-07-30T01:12:13.214Z,51.72
2018-07-30T01:15:16.284Z,51.57
2018-07-30T01:18:19.383Z,51.78
2018-07-30T01:21:22.539Z,52.49
2018-07-30T01:24:25.490Z,51.96
2018-07-30T01:27:28.486Z,51.80
2018-07-30T01:30:31.721Z,51.61
2018-07-30T01:33:34.857Z,52.18
2018-07-30T01:36:37.914Z,51.97
2018-07-30T01:39:40.959Z,52.52
2018-07-30T01:42:44.117Z,52.18
2018-07-30T01:45:47.161Z,52.97
2018-07-30T01:48:50.276Z,52.89
2018-07-30T01:51:53.366Z,53.26
2018-07-30T01:54:56.444Z,54.03
2018-07-30T01:57:59.564Z,54.42
2018-07-30T02:01:02.787Z,54.12
2018-07-30T02:04:06.098Z,53.08
2018-07-30T02:07:09.864Z,53.32
2018-07-30T02:10:13.185Z,54.40
2018-07-30T02:13:16.230Z,53.69
2018-07-30T02:16:19.253Z,54.43
2018-07-30T02:19:22.265Z,53.68
2018-07-30T02:22:25.321Z,53.52
2018-07-30T02:25:28.378Z,54.46
2018-07-30T02:28:31.437Z,54.43
2018-07-30T02:31:34.555Z,53.70
2018-07-30T02:34:37.638Z,53.37
2018-07-30T02:37:40.835Z,54.27
2018-07-30T02:40:43.899Z,53.47
2018-07-30T02:43:47.043Z,53.49
2018-07-30T02:46:50.114Z,52.98
2018-07-30T02:49:53.157Z,53.13
2018-07-30T02:52:56.209Z,53.32
2018-07-30T02:55:59.250Z,53.10
2018-07-30T02:59:02.384Z,53.87
2018-07-30T03:02:07.754Z,53.27
2018-07-30T03:05:11.984Z,53.27
2018-07-30T03:08:15.060Z,53.19
2018-07-30T03:11:18.158Z,53.55
2018-07-30T03:14:21.236Z,52.75
2018-07-30T03:17:24.345Z,52.55
2018-07-30T03:20:27.589Z,53.82
2018-07-30T03:23:30.650Z,53.05
2018-07-30T03:26:33.707Z,53.20
2018-07-30T03:29:36.870Z,53.34
2018-07-30T03:32:40.146Z,53.75
2018-07-30T03:35:43.294Z,53.85
2018-07-30T03:38:46.367Z,53.39
2018-07-30T03:41:49.434Z,52.76
2018-07-30T03:44:52.503Z,53.34
2018-07-30T03:47:55.531Z,53.79
2018-07-30T03:50:58.482Z,53.54
2018-07-30T03:54:01.559Z,54.00
2018-07-30T03:57:04.902Z,54.82
2018-07-30T04:00:10.126Z,53.96
2018-07-30T04:03:13.139Z,54.64
2018-07-30T04:06:16.362Z,54.70
2018-07-30T04:09:19.393Z,55.09
2018-07-30T04:12:22.607Z,55.49
2018-07-30T04:15:25.719Z,55.20
2018-07-30T04:18:28.789Z,55.26
2018-07-30T04:21:31.809Z,55.23
2018-07-30T04:24:34.901Z,54.68
2018-07-30T04:27:37.969Z,55.55
2018-07-30T04:30:41.107Z,55.10
2018-07-30T04:33:44.114Z,55.29
2018-07-30T04:36:47.360Z,56.95
2018-07-30T04:39:50.429Z,55.47
2018-07-30T04:42:53.556Z,55.84
2018-07-30T04:45:56.645Z,56.12
2018-07-30T04:48:59.738Z,56.34
2018-07-30T04:52:02.829Z,57.32
2018-07-30T04:55:05.858Z,58.81
2018-07-30T04:58:08.905Z,57.22
2018-07-30T05:01:12.052Z,57.79
2018-07-30T05:04:15.058Z,58.99
2018-07-30T05:07:18.161Z,58.12
2018-07-30T05:10:21.287Z,58.64
2018-07-30T05:13:24.282Z,58.58
2018-07-30T05:16:27.693Z,58.90
2018-07-30T05:19:30.847Z,58.70
2018-07-30T05:22:33.894Z,58.63
2018-07-30T05:25:37.209Z,57.83
2018-07-30T05:28:40.249Z,56.67
2018-07-30T05:31:43.260Z,58.48
2018-07-30T05:34:46.371Z,59.12
2018-07-30T05:37:49.730Z,60.49
2018-07-30T05:40:52.827Z,60.85
2018-07-30T05:43:55.878Z,58.75
2018-07-30T05:46:58.962Z,58.32
2018-07-30T05:50:02.274Z,59.10
2018-07-30T05:53:05.419Z,57.62
2018-07-30T05:56:08.969Z,59.95
2018-07-30T05:59:12.062Z,58.14
2018-07-30T06:02:16.102Z,61.04
2018-07-30T06:05:19.167Z,61.54
2018-07-30T06:08:22.333Z,60.90
2018-07-30T06:11:25.394Z,59.69
2018-07-30T06:14:35.222Z,59.88
2018-07-30T06:17:38.301Z,60.47
2018-07-30T06:20:41.431Z,59.58
2018-07-30T06:23:44.505Z,57.93
2018-07-30T06:26:47.534Z,57.87
2018-07-30T06:29:50.731Z,60.03
2018-07-30T06:32:53.806Z,59.86
2018-07-30T06:35:56.776Z,61.43
2018-07-30T06:38:59.771Z,55.60
2018-07-30T06:42:02.858Z,59.27
2018-07-30T06:45:06.108Z,58.70
2018-07-30T06:48:09.166Z,56.92
2018-07-30T06:51:12.227Z,53.50
2018-07-30T06:54:15.345Z,56.44
2018-07-30T06:57:18.435Z,55.00
2018-07-30T07:00:21.474Z,52.06
2018-07-30T07:03:24.543Z,52.36
2018-07-30T07:06:27.595Z,53.47
2018-07-30T07:09:30.676Z,49.43
2018-07-30T07:12:33.734Z,47.47
2018-07-30T07:15:36.870Z,47.08
2018-07-30T07:18:40.365Z,45.40
2018-07-30T07:21:43.389Z,45.81
2018-07-30T07:24:46.446Z,45.91
2018-07-30T07:27:49.460Z,47.07
2018-07-30T07:30:52.569Z,47.27
2018-07-30T07:33:55.603Z,46.15
2018-07-30T07:36:58.586Z,46.07
2018-07-30T07:40:01.770Z,47.80
2018-07-30T07:43:04.938Z,47.43
2018-07-30T07:46:08.390Z,48.00
2018-07-30T07:49:11.642Z,48.48
2018-07-30T07:52:14.641Z,47.08
2018-07-30T07:55:17.598Z,48.70
2018-07-30T07:58:20.661Z,53.03
2018-07-30T08:01:23.684Z,49.56
2018-07-30T08:04:26.700Z,48.20
2018-07-30T08:07:29.772Z,50.04
2018-07-30T08:10:32.845Z,51.26
2018-07-30T08:13:35.991Z,49.25
2018-07-30T08:16:39.354Z,48.38
2018-07-30T08:19:42.368Z,48.94
2018-07-30T08:22:45.348Z,47.06
2018-07-30T08:25:49.062Z,46.22
2018-07-30T08:28:52.115Z,48.59
2018-07-30T08:31:55.085Z,45.53
2018-07-30T08:34:58.258Z,45.85
2018-07-30T08:38:01.213Z,45.86
2018-07-30T08:41:04.261Z,45.46
2018-07-30T08:44:07.502Z,49.76
2018-07-30T08:51:38.292Z,47.45
2018-07-30T08:54:41.247Z,44.41
2018-07-30T08:57:44.209Z,45.48
2018-07-30T09:00:48.150Z,43.32
2018-07-30T09:03:51.214Z,43.62
2018-07-30T09:06:54.253Z,44.57
2018-07-30T09:09:57.215Z,45.06
2018-07-30T09:13:00.385Z,44.03
2018-07-30T09:16:03.710Z,42.93
2018-07-30T09:19:06.856Z,44.77
2018-07-30T09:22:10.198Z,41.93
2018-07-30T09:25:13.458Z,42.80
2018-07-30T09:28:16.636Z,42.39
2018-07-30T09:31:19.760Z,40.73
2018-07-30T09:34:23.071Z,40.62
2018-07-30T09:37:26.175Z,40.76
2018-07-30T09:40:29.218Z,43.50
2018-07-30T09:43:32.469Z,42.91
2018-07-30T09:46:35.637Z,41.96
2018-07-30T09:49:38.675Z,40.47
2018-07-30T09:52:41.868Z,40.16
2018-07-30T09:55:44.837Z,40.59
2018-07-30T09:58:47.839Z,40.65
2018-07-30T10:01:50.816Z,39.24
2018-07-30T10:04:53.789Z,39.09
2018-07-30T10:07:56.776Z,40.27
2018-07-30T10:10:59.893Z,40.07
2018-07-30T10:14:03.218Z,38.13
2018-07-30T10:17:06.274Z,39.18
2018-07-30T10:20:09.598Z,39.17
2018-07-30T10:23:12.758Z,39.36
2018-07-30T10:26:15.739Z,37.04
2018-07-30T10:29:18.750Z,37.83
2018-07-30T10:32:21.725Z,38.33
2018-07-30T10:35:24.938Z,38.97
2018-07-30T10:38:28.022Z,38.80
2018-07-30T10:41:31.485Z,37.97
2018-07-30T10:44:34.713Z,38.06
2018-07-30T10:47:37.827Z,37.62
2018-07-30T10:50:41.002Z,39.44
2018-07-30T10:53:43.986Z,38.82
2018-07-30T10:56:47.174Z,38.27
2018-07-30T10:59:50.141Z,38.78
2018-07-30T11:02:53.125Z,37.40
2018-07-30T11:05:56.136Z,35.98
2018-07-30T11:08:59.082Z,35.58
2018-07-30T11:12:02.583Z,35.57
2018-07-30T11:15:05.722Z,36.32
2018-07-30T11:18:08.765Z,36.52
2018-07-30T11:21:11.865Z,35.32
2018-07-30T11:24:14.820Z,33.70
2018-07-30T11:27:17.781Z,33.11
2018-07-30T11:30:20.760Z,33.25
2018-07-30T11:33:23.726Z,36.37
2018-07-30T11:36:34.148Z,32.82
2018-07-30T11:39:37.942Z,34.06
2018-07-30T11:42:48.112Z,31.46
2018-07-30T11:45:51.186Z,32.40
2018-07-30T11:48:55.030Z,32.28
2018-07-30T11:51:59.141Z,31.89
2018-07-30T11:55:02.864Z,33.01
2018-07-30T11:58:06.054Z,31.85
2018-07-30T12:01:09.192Z,31.71
2018-07-30T12:04:12.446Z,30.98
2018-07-30T12:07:16.884Z,31.69
2018-07-30T12:10:19.866Z,32.69
2018-07-30T12:13:23.098Z,32.22
2018-07-30T12:16:26.084Z,32.68
2018-07-30T12:19:29.014Z,29.90
2018-07-30T12:22:32.256Z,31.23
2018-07-30T12:25:35.412Z,29.56
2018-07-30T12:28:48.409Z,29.04
2018-07-30T12:31:51.350Z,28.91
2018-07-30T12:34:54.253Z,30.44
2018-07-30T12:37:57.264Z,28.54
2018-07-30T12:41:00.335Z,28.83
2018-07-30T12:44:03.444Z,29.83
2018-07-30T12:47:06.524Z,29.80
2018-07-30T12:50:09.559Z,31.44
2018-07-30T12:53:12.753Z,31.30
2018-07-30T12:56:15.706Z,31.72
2018-07-30T12:59:18.773Z,32.65
2018-07-30T13:02:21.781Z,32.45
2018-07-30T13:05:25.091Z,31.47
2018-07-30T13:08:28.139Z,30.13
2018-07-30T13:11:31.336Z,31.66
2018-07-30T13:14:34.369Z,32.42
2018-07-30T13:17:37.523Z,30.64
2018-07-30T13:20:40.560Z,29.89
2018-07-30T13:23:43.586Z,32.51
2018-07-30T13:26:46.670Z,30.87
2018-07-30T13:29:49.552Z,32.34
2018-07-30T13:32:52.536Z,32.87
2018-07-30T13:35:55.504Z,32.84
2018-07-30T13:38:58.469Z,33.62
2018-07-30T13:42:01.506Z,32.52
2018-07-30T13:45:05.205Z,30.84
2018-07-30T13:48:08.192Z,31.47
2018-07-30T13:51:11.179Z,30.80
2018-07-30T13:54:14.173Z,30.51
2018-07-30T13:57:17.149Z,28.80
2018-07-30T14:00:20.162Z,28.77
2018-07-30T14:03:23.180Z,30.70
2018-07-30T14:06:26.189Z,31.79
2018-07-30T14:09:29.153Z,32.74
2018-07-30T14:12:32.193Z,32.72
2018-07-30T14:15:35.253Z,34.30
2018-07-30T14:18:38.395Z,32.51
2018-07-30T14:21:41.449Z,33.46
2018-07-30T14:24:44.444Z,35.43
2018-07-30T14:27:47.442Z,34.56
2018-07-30T14:30:50.380Z,32.34
2018-07-30T14:33:53.374Z,33.42
2018-07-30T14:36:56.349Z,33.01
2018-07-30T14:40:00.910Z,33.96
2018-07-30T14:43:03.994Z,33.74
2018-07-30T14:46:07.005Z,34.56
2018-07-30T14:49:10.012Z,34.47
2018-07-30T14:52:12.999Z,34.62
2018-07-30T14:55:15.973Z,33.73
2018-07-30T14:58:18.969Z,32.72
2018-07-30T15:01:21.936Z,31.25
2018-07-30T15:04:24.943Z,30.66
2018-07-30T15:07:27.918Z,31.15
2018-07-30T15:10:30.885Z,31.41
2018-07-30T15:13:33.849Z,31.23
2018-07-30T15:16:37.424Z,31.98
2018-07-30T15:19:40.445Z,33.05
2018-07-30T15:22:43.414Z,31.92
2018-07-30T15:25:46.424Z,33.36
2018-07-30T15:28:52.368Z,33.43
2018-07-30T15:31:55.345Z,33.39
2018-07-30T15:34:58.343Z,33.92
2018-07-30T15:38:01.374Z,33.04
2018-07-30T15:41:04.414Z,33.43
2018-07-30T15:44:07.532Z,33.79
2018-07-30T15:47:10.628Z,33.11
2018-07-30T15:50:13.615Z,33.29
2018-07-30T15:53:16.553Z,31.82
2018-07-30T15:56:19.541Z,32.71
2018-07-30T15:59:22.516Z,32.52
2018-07-30T16:02:25.499Z,32.48
2018-07-30T16:05:28.523Z,32.82
2018-07-30T16:08:31.528Z,33.25
2018-07-30T16:11:34.670Z,33.09
2018-07-30T16:14:37.664Z,32.68
2018-07-30T16:17:40.721Z,33.12
2018-07-30T16:20:43.636Z,33.24
2018-07-30T16:23:46.576Z,32.81
2018-07-30T16:26:49.515Z,34.08
2018-07-30T16:29:52.450Z,33.13
2018-07-30T16:32:55.390Z,34.29
2018-07-30T16:35:58.372Z,33.64
2018-07-30T16:39:01.390Z,32.83
2018-07-30T16:42:04.644Z,33.11
2018-07-30T16:45:08.626Z,33.54
2018-07-30T16:48:11.702Z,32.90
2018-07-30T16:51:14.729Z,33.39
2018-07-30T16:54:17.705Z,33.92
2018-07-30T16:57:20.957Z,33.98
2018-07-30T17:00:23.991Z,33.54
2018-07-30T17:03:27.043Z,32.05
2018-07-30T17:06:30.296Z,33.85
2018-07-30T17:09:33.365Z,34.28
2018-07-30T17:12:36.511Z,32.75
2018-07-30T17:15:39.594Z,33.16
2018-07-30T17:18:42.946Z,33.04
2018-07-30T17:21:45.991Z,33.09
2018-07-30T17:24:49.553Z,33.62
2018-07-30T17:27:52.746Z,32.42
2018-07-30T17:30:55.850Z,32.66
2018-07-30T17:33:59.046Z,33.23
2018-07-30T17:37:02.372Z,33.36
2018-07-30T17:40:07.176Z,33.11
2018-07-30T17:43:10.388Z,32.53
2018-07-30T17:46:13.545Z,32.93
2018-07-30T17:49:16.733Z,33.05
2018-07-30T17:52:19.829Z,32.65
2018-07-30T17:55:23.113Z,33.51
2018-07-30T17:58:26.206Z,33.54
2018-07-30T18:01:29.432Z,33.72
2018-07-30T18:04:34.020Z,36.39
2018-07-30T18:07:37.279Z,38.33
2018-07-30T18:10:40.546Z,38.77
2018-07-30T18:13:43.681Z,38.41
2018-07-30T18:16:46.852Z,39.97
2018-07-30T18:19:49.972Z,41.10
2018-07-30T18:22:53.185Z,41.90
2018-07-30T18:25:56.471Z,42.20
2018-07-30T18:28:59.683Z,43.17
2018-07-30T18:32:02.912Z,43.13
2018-07-30T18:35:06.160Z,44.02
2018-07-30T18:38:09.406Z,45.10
2018-07-30T18:41:12.626Z,45.73
2018-07-30T18:44:15.900Z,46.39
2018-07-30T18:47:19.041Z,47.37
2018-07-30T18:50:22.155Z,48.01
2018-07-30T18:53:25.481Z,48.08
2018-07-30T18:56:29.151Z,48.29
2018-07-30T18:59:32.340Z,48.73
2018-07-30T19:02:35.571Z,48.29
2018-07-30T19:05:39.004Z,49.14
2018-07-30T19:08:42.155Z,50.05
2018-07-30T19:11:53.950Z,50.25
2018-07-30T19:14:57.233Z,48.81
2018-07-30T19:18:00.441Z,48.91
2018-07-30T19:21:03.628Z,49.27
2018-07-30T19:24:07.785Z,50.20
2018-07-30T19:27:10.985Z,50.00
2018-07-30T19:30:14.175Z,49.59
2018-07-30T19:33:17.388Z,49.10
2018-07-30T19:36:21.058Z,48.25
2018-07-30T19:39:24.412Z,48.54
2018-07-30T19:42:27.571Z,49.14
2018-07-30T19:45:30.735Z,48.29
2018-07-30T19:48:33.928Z,47.90
2018-07-30T19:51:37.191Z,49.25
2018-07-30T19:54:40.423Z,48.65
2018-07-30T19:57:43.786Z,47.88
2018-07-30T20:00:46.564Z,48.71
2018-07-30T20:03:49.597Z,48.54
2018-07-30T20:06:52.821Z,48.29
2018-07-30T20:09:55.916Z,48.24
2018-07-30T20:12:59.191Z,47.33
2018-07-30T20:16:02.270Z,48.01
2018-07-30T20:19:05.418Z,47.07
2018-07-30T20:22:08.557Z,46.51
2018-07-30T20:25:12.382Z,47.36
2018-07-30T20:28:15.373Z,46.68
2018-07-30T20:31:23.336Z,46.93
2018-07-30T20:34:26.290Z,47.46
2018-07-30T20:37:34.729Z,47.54
2018-07-30T20:40:37.734Z,46.65
2018-07-30T20:43:40.677Z,46.28
2018-07-30T20:46:43.755Z,47.28
2018-07-30T20:49:46.746Z,46.69
2018-07-30T20:52:49.749Z,46.14
2018-07-30T20:55:52.723Z,46.42
2018-07-30T20:58:55.725Z,46.32
2018-07-30T21:01:58.745Z,46.34
2018-07-30T21:05:02.249Z,46.32
2018-07-30T21:08:05.320Z,46.74
2018-07-30T21:11:08.318Z,46.40
2018-07-30T21:14:11.285Z,46.18
2018-07-30T21:17:14.417Z,48.05
2018-07-30T21:20:17.529Z,48.26
2018-07-30T21:23:20.663Z,48.44
2018-07-30T21:26:23.722Z,48.21
2018-07-30T21:29:27.653Z,48.44
2018-07-30T21:32:30.693Z,48.50
2018-07-30T21:35:33.767Z,49.07
2018-07-30T21:38:38.877Z,49.08
2018-07-30T21:41:42.083Z,48.91
2018-07-30T21:44:45.178Z,49.17
2018-07-30T21:47:48.367Z,50.38
2018-07-30T21:50:51.491Z,50.44
2018-07-30T21:53:54.593Z,50.48
2018-07-30T21:56:57.815Z,49.86
2018-07-30T22:00:00.957Z,51.02
2018-07-30T22:03:05.931Z,50.20
2018-07-30T22:06:09.662Z,50.44
2018-07-30T22:09:14.113Z,50.22
2018-07-30T22:12:19.803Z,50.70
2018-07-30T22:19:12.148Z,51.05
2018-07-30T22:22:16.291Z,50.44
2018-07-30T22:25:19.394Z,50.90
2018-07-30T22:28:24.619Z,50.36
2018-07-30T22:31:28.102Z,50.00
2018-07-30T22:34:32.323Z,49.08
2018-07-30T22:37:35.399Z,48.95
2018-07-30T22:40:38.646Z,49.65
2018-07-30T22:43:41.797Z,49.35
2018-07-30T22:46:45.317Z,50.00
2018-07-30T22:49:49.991Z,49.22
2018-07-30T22:52:53.050Z,49.99
2018-07-30T22:55:56.139Z,49.60
2018-07-30T22:58:59.223Z,50.91
2018-07-30T23:02:02.542Z,50.59
2018-07-30T23:05:07.986Z,49.69
2018-07-30T23:08:12.277Z,50.13
2018-07-30T23:11:15.402Z,50.72
2018-07-30T23:14:18.483Z,49.15
2018-07-30T23:17:21.614Z,51.02
2018-07-30T23:20:24.714Z,49.62
2018-07-30T23:23:28.666Z,51.66
2018-07-30T23:26:32.177Z,51.26
2018-07-30T23:29:35.259Z,50.76
2018-07-30T23:32:38.791Z,51.02
2018-07-30T23:35:41.862Z,51.44
2018-07-30T23:38:45.365Z,51.11
2018-07-30T23:41:48.542Z,51.55
2018-07-30T23:44:51.612Z,51.60
2018-07-30T23:47:54.854Z,51.92
2018-07-30T23:50:57.933Z,51.81
2018-07-30T23:54:01.306Z,52.01
2018-07-30T23:57:04.587Z,52.08
